SASA/SLA METAR and TAF weather

Enter ICAO airport designator
Station Type Date Time Source
SASA METAR 2019/04/19 11:00 UTC NOAA

SASA 191100Z 27002KT 9999 FEW008 SCT020 16/15 Q1015


Station Type Date Time Source
SASA Decoded METAR 2019/04/19 11:00 UTC NOAA

Salta Aerodrome, Argentina (SASA) 24-51S 065-29W 1221M
Apr 19, 2019 - 07:00 AM EDT / 2019.04.19 1100 UTC
Wind: from the W (270 degrees) at 2 MPH (2 KT):0
Visibility: greater than 7 mile(s):0
Sky conditions: partly cloudy
Temperature: 60 F (16 C)
Dew Point: 59 F (15 C)
Relative Humidity: 93%
Pressure (altimeter): 29.97 in. Hg (1015 hPa)
ob: SASA 191100Z 27002KT 9999 FEW008 SCT020 16/15 Q1015
cycle: 11

Station Type Date Time Source
SASA TAF 2019/04/19 06:21 UTC NOAA

TAF SASA 190500Z 1906/2006 VRB02KT 9999 BKN020 OVC045 TX26/1918Z TN16/1910Z
BECMG 1906/1908 VRB02KT 5000 DZ -RA BR BKN007 OVC020 PROB30
TEMPO 1908/1911 0700 FG OVC004
BECMG 1912/1915 09005KT 9999 BKN020

Example: see airport list